sensor_id;sensor_type;location;lat;lon;timestamp;pressure;altitude;pressure_sealevel;temperature;humidity
84147;BME280;74267;50.434;7.398;2024-02-16T00:01:13;100512.72;;;10.89;85.21
84147;BME280;74267;50.434;7.398;2024-02-16T00:03:39;100519.22;;;10.93;85.21
84147;BME280;74267;50.434;7.398;2024-02-16T00:06:05;100514.38;;;10.84;84.89
84147;BME280;74267;50.434;7.398;2024-02-16T00:08:30;100512.31;;;10.92;85.33
84147;BME280;74267;50.434;7.398;2024-02-16T00:10:56;100518.00;;;10.89;85.17
84147;BME280;74267;50.434;7.398;2024-02-16T00:13:21;100512.94;;;10.94;85.66
84147;BME280;74267;50.434;7.398;2024-02-16T00:15:47;100511.50;;;10.98;85.03
84147;BME280;74267;50.434;7.398;2024-02-16T00:18:12;100513.97;;;10.93;84.89
84147;BME280;74267;50.434;7.398;2024-02-16T00:20:38;100507.84;;;10.99;85.27
84147;BME280;74267;50.434;7.398;2024-02-16T00:23:03;100505.03;;;10.88;84.88
84147;BME280;74267;50.434;7.398;2024-02-16T00:25:29;100505.50;;;10.85;84.77
84147;BME280;74267;50.434;7.398;2024-02-16T00:27:54;100511.91;;;10.95;84.89
84147;BME280;74267;50.434;7.398;2024-02-16T00:30:20;100507.00;;;11.05;83.82
84147;BME280;74267;50.434;7.398;2024-02-16T00:32:46;100499.75;;;10.94;84.64
84147;BME280;74267;50.434;7.398;2024-02-16T00:35:12;100493.69;;;10.94;83.40
84147;BME280;74267;50.434;7.398;2024-02-16T00:37:38;100500.13;;;11.04;83.99
84147;BME280;74267;50.434;7.398;2024-02-16T00:40:04;100499.34;;;10.97;83.43
84147;BME280;74267;50.434;7.398;2024-02-16T00:42:29;100504.19;;;11.00;83.85
84147;BME280;74267;50.434;7.398;2024-02-16T00:44:56;100507.00;;;11.05;83.55
84147;BME280;74267;50.434;7.398;2024-02-16T00:47:22;100507.41;;;11.02;83.88
84147;BME280;74267;50.434;7.398;2024-02-16T00:49:49;100508.84;;;10.98;83.49
84147;BME280;74267;50.434;7.398;2024-02-16T00:52:14;100502.41;;;10.88;84.82
84147;BME280;74267;50.434;7.398;2024-02-16T00:54:39;100509.53;;;10.81;84.55
84147;BME280;74267;50.434;7.398;2024-02-16T00:57:04;100491.75;;;10.76;84.91
84147;BME280;74267;50.434;7.398;2024-02-16T00:59:30;100493.53;;;10.82;83.53
84147;BME280;74267;50.434;7.398;2024-02-16T01:01:55;100498.75;;;10.95;84.61
84147;BME280;74267;50.434;7.398;2024-02-16T01:04:21;100499.56;;;10.89;84.06
84147;BME280;74267;50.434;7.398;2024-02-16T01:06:46;100502.81;;;10.91;84.65
84147;BME280;74267;50.434;7.398;2024-02-16T01:09:11;100508.69;;;10.93;82.92
84147;BME280;74267;50.434;7.398;2024-02-16T01:11:40;100498.53;;;10.97;83.52
84147;BME280;74267;50.434;7.398;2024-02-16T01:14:05;100507.47;;;10.89;83.46
84147;BME280;74267;50.434;7.398;2024-02-16T01:16:30;100505.03;;;10.94;83.51
84147;BME280;74267;50.434;7.398;2024-02-16T01:18:55;100502.19;;;10.96;84.01
84147;BME280;74267;50.434;7.398;2024-02-16T01:21:21;100500.19;;;10.91;84.31
84147;BME280;74267;50.434;7.398;2024-02-16T01:23:47;100507.91;;;10.86;83.74
84147;BME280;74267;50.434;7.398;2024-02-16T01:26:13;100500.22;;;10.85;84.44
84147;BME280;74267;50.434;7.398;2024-02-16T01:28:38;100502.66;;;10.80;84.27
84147;BME280;74267;50.434;7.398;2024-02-16T01:31:04;100507.91;;;10.86;83.84
84147;BME280;74267;50.434;7.398;2024-02-16T01:33:29;100503.00;;;10.96;83.73
84147;BME280;74267;50.434;7.398;2024-02-16T01:35:54;100503.84;;;10.90;84.42
84147;BME280;74267;50.434;7.398;2024-02-16T01:38:20;100495.75;;;10.85;84.47
84147;BME280;74267;50.434;7.398;2024-02-16T01:40:48;100502.81;;;10.98;85.31
84147;BME280;74267;50.434;7.398;2024-02-16T01:43:13;100513.53;;;10.96;85.49
84147;BME280;74267;50.434;7.398;2024-02-16T01:45:38;100498.31;;;10.98;87.22
84147;BME280;74267;50.434;7.398;2024-02-16T01:48:04;100500.00;;;10.86;87.92
84147;BME280;74267;50.434;7.398;2024-02-16T01:50:29;100505.03;;;10.94;87.48
84147;BME280;74267;50.434;7.398;2024-02-16T01:52:55;100492.88;;;10.93;87.43
84147;BME280;74267;50.434;7.398;2024-02-16T01:55:21;100505.50;;;10.78;88.56
84147;BME280;74267;50.434;7.398;2024-02-16T01:57:47;100505.06;;;10.81;88.02
84147;BME280;74267;50.434;7.398;2024-02-16T02:00:14;100507.47;;;10.89;88.29
84147;BME280;74267;50.434;7.398;2024-02-16T02:02:41;100514.53;;;10.95;87.99
84147;BME280;74267;50.434;7.398;2024-02-16T02:05:09;100511.13;;;10.88;88.48
84147;BME280;74267;50.434;7.398;2024-02-16T02:07:34;100509.53;;;10.81;88.23
84147;BME280;74267;50.434;7.398;2024-02-16T02:10:00;100502.28;;;10.76;88.91
84147;BME280;74267;50.434;7.398;2024-02-16T02:12:25;100501.06;;;10.72;89.11
84147;BME280;74267;50.434;7.398;2024-02-16T02:14:50;100511.19;;;10.75;89.10
84147;BME280;74267;50.434;7.398;2024-02-16T02:17:17;100505.50;;;10.78;88.67
84147;BME280;74267;50.434;7.398;2024-02-16T02:19:44;100507.50;;;10.83;89.12
84147;BME280;74267;50.434;7.398;2024-02-16T02:22:16;100510.31;;;10.88;88.82
84147;BME280;74267;50.434;7.398;2024-02-16T02:24:42;100499.41;;;10.84;89.92
84147;BME280;74267;50.434;7.398;2024-02-16T02:27:09;100500.84;;;10.80;89.79
84147;BME280;74267;50.434;7.398;2024-02-16T02:29:34;100502.25;;;10.83;90.18
84147;BME280;74267;50.434;7.398;2024-02-16T02:31:59;100496.94;;;10.89;89.66
84147;BME280;74267;50.434;7.398;2024-02-16T02:34:25;100489.66;;;10.91;89.61
84147;BME280;74267;50.434;7.398;2024-02-16T02:36:50;100495.69;;;10.98;89.63
84147;BME280;74267;50.434;7.398;2024-02-16T02:39:16;100486.59;;;10.94;89.67
84147;BME280;74267;50.434;7.398;2024-02-16T02:41:41;100490.25;;;10.93;90.25
84147;BME280;74267;50.434;7.398;2024-02-16T02:44:06;100488.44;;;10.87;89.85
84147;BME280;74267;50.434;7.398;2024-02-16T02:46:32;100482.03;;;10.70;90.47
84147;BME280;74267;50.434;7.398;2024-02-16T02:48:57;100479.56;;;10.75;90.65
84147;BME280;74267;50.434;7.398;2024-02-16T02:51:22;100487.31;;;10.70;90.22
84147;BME280;74267;50.434;7.398;2024-02-16T02:53:48;100486.06;;;10.73;89.24
84147;BME280;74267;50.434;7.398;2024-02-16T02:56:14;100480.75;;;10.79;89.04
84147;BME280;74267;50.434;7.398;2024-02-16T02:58:39;100489.47;;;10.86;88.22
84147;BME280;74267;50.434;7.398;2024-02-16T03:01:05;100492.09;;;10.86;89.26
84147;BME280;74267;50.434;7.398;2024-02-16T03:03:32;100485.19;;;10.85;88.65
84147;BME280;74267;50.434;7.398;2024-02-16T03:05:59;100494.09;;;10.97;88.54
84147;BME280;74267;50.434;7.398;2024-02-16T03:08:24;100495.75;;;10.85;90.28
84147;BME280;74267;50.434;7.398;2024-02-16T03:10:50;100497.94;;;10.95;89.33
84147;BME280;74267;50.434;7.398;2024-02-16T03:13:15;100508.47;;;10.95;89.23
84147;BME280;74267;50.434;7.398;2024-02-16T03:15:43;100507.06;;;10.92;89.66
84147;BME280;74267;50.434;7.398;2024-02-16T03:18:08;100515.63;;;10.81;90.43
84147;BME280;74267;50.434;7.398;2024-02-16T03:20:37;100513.22;;;10.73;90.28
84147;BME280;74267;50.434;7.398;2024-02-16T03:23:02;100507.34;;;10.71;90.96
84147;BME280;74267;50.434;7.398;2024-02-16T03:25:28;100498.63;;;10.77;90.24
84147;BME280;74267;50.434;7.398;2024-02-16T03:27:54;100504.28;;;10.74;90.72
84147;BME280;74267;50.434;7.398;2024-02-16T03:30:19;100503.47;;;10.80;91.28
84147;BME280;74267;50.434;7.398;2024-02-16T03:32:51;100507.91;;;10.86;90.80
84147;BME280;74267;50.434;7.398;2024-02-16T03:35:17;100513.97;;;10.93;89.83
84147;BME280;74267;50.434;7.398;2024-02-16T03:37:44;100500.59;;;10.88;89.92
84147;BME280;74267;50.434;7.398;2024-02-16T03:40:09;100503.25;;;10.82;89.92
84147;BME280;74267;50.434;7.398;2024-02-16T03:42:38;100498.78;;;10.82;90.23
84147;BME280;74267;50.434;7.398;2024-02-16T03:45:04;100503.03;;;10.90;90.62
84147;BME280;74267;50.434;7.398;2024-02-16T03:47:29;100494.31;;;10.89;89.99
84147;BME280;74267;50.434;7.398;2024-02-16T03:49:54;100502.00;;;10.91;89.80
84147;BME280;74267;50.434;7.398;2024-02-16T03:52:20;100501.22;;;10.90;89.76
84147;BME280;74267;50.434;7.398;2024-02-16T03:54:45;100501.63;;;10.87;89.77
84147;BME280;74267;50.434;7.398;2024-02-16T03:57:14;100505.03;;;10.94;89.73
84147;BME280;74267;50.434;7.398;2024-02-16T03:59:42;100508.91;;;10.85;90.17
84147;BME280;74267;50.434;7.398;2024-02-16T04:02:08;100505.88;;;10.88;90.67
84147;BME280;74267;50.434;7.398;2024-02-16T04:04:34;100511.38;;;10.80;89.63
84147;BME280;74267;50.434;7.398;2024-02-16T04:07:00;100504.03;;;10.89;90.42
84147;BME280;74267;50.434;7.398;2024-02-16T04:09:25;100507.88;;;10.93;89.97
84147;BME280;74267;50.434;7.398;2024-02-16T04:11:50;100518.81;;;10.90;90.26
84147;BME280;74267;50.434;7.398;2024-02-16T04:14:16;100523.63;;;10.99;90.81
84147;BME280;74267;50.434;7.398;2024-02-16T04:16:43;100519.59;;;10.97;90.17
84147;BME280;74267;50.434;7.398;2024-02-16T04:19:09;100523.88;;;10.98;89.95
84147;BME280;74267;50.434;7.398;2024-02-16T04:21:34;100521.25;;;10.91;89.78
84147;BME280;74267;50.434;7.398;2024-02-16T04:23:59;100509.53;;;10.87;90.06
84147;BME280;74267;50.434;7.398;2024-02-16T04:26:24;100503.00;;;10.96;89.63
84147;BME280;74267;50.434;7.398;2024-02-16T04:28:50;100497.13;;;10.94;89.52
84147;BME280;74267;50.434;7.398;2024-02-16T04:31:15;100488.44;;;10.87;89.96
84147;BME280;74267;50.434;7.398;2024-02-16T04:33:40;100486.41;;;10.89;89.54
84147;BME280;74267;50.434;7.398;2024-02-16T04:36:07;100493.50;;;10.89;90.82
84147;BME280;74267;50.434;7.398;2024-02-16T04:38:32;100505.03;;;10.94;90.04
84147;BME280;74267;50.434;7.398;2024-02-16T04:40:58;100503.78;;;10.97;90.69
84147;BME280;74267;50.434;7.398;2024-02-16T04:43:23;100504.41;;;10.99;89.75
84147;BME280;74267;50.434;7.398;2024-02-16T04:45:49;100498.56;;;10.90;90.23
84147;BME280;74267;50.434;7.398;2024-02-16T04:48:14;100506.63;;;10.95;89.97
84147;BME280;74267;50.434;7.398;2024-02-16T04:50:39;100509.06;;;10.97;90.08
84147;BME280;74267;50.434;7.398;2024-02-16T04:53:05;100508.69;;;10.93;89.70
84147;BME280;74267;50.434;7.398;2024-02-16T04:55:30;100508.06;;;10.98;89.64
84147;BME280;74267;50.434;7.398;2024-02-16T04:57:56;100510.06;;;11.02;90.68
84147;BME280;74267;50.434;7.398;2024-02-16T05:00:22;100510.06;;;11.02;90.27
84147;BME280;74267;50.434;7.398;2024-02-16T05:02:47;100509.47;;;11.00;90.57
84147;BME280;74267;50.434;7.398;2024-02-16T05:05:13;100509.31;;;10.89;90.77
84147;BME280;74267;50.434;7.398;2024-02-16T05:07:41;100497.59;;;10.78;91.32
84147;BME280;74267;50.434;7.398;2024-02-16T05:10:10;100501.06;;;10.72;91.37
84147;BME280;74267;50.434;7.398;2024-02-16T05:12:36;100501.22;;;10.84;91.48
84147;BME280;74267;50.434;7.398;2024-02-16T05:15:02;100504.84;;;10.89;90.95
84147;BME280;74267;50.434;7.398;2024-02-16T05:17:27;100498.16;;;10.87;90.46
84147;BME280;74267;50.434;7.398;2024-02-16T05:19:53;100488.50;;;10.74;90.98
84147;BME280;74267;50.434;7.398;2024-02-16T05:22:21;100487.31;;;10.70;91.83
84147;BME280;74267;50.434;7.398;2024-02-16T05:24:49;100494.22;;;10.65;91.54
84147;BME280;74267;50.434;7.398;2024-02-16T05:27:14;100490.94;;;10.69;91.54
84147;BME280;74267;50.434;7.398;2024-02-16T05:29:40;100492.00;;;10.62;92.21
84147;BME280;74267;50.434;7.398;2024-02-16T05:32:06;100484.88;;;10.62;92.19
84147;BME280;74267;50.434;7.398;2024-02-16T05:34:31;100476.41;;;10.54;92.25
84147;BME280;74267;50.434;7.398;2024-02-16T05:37:04;100481.84;;;10.65;92.04
84147;BME280;74267;50.434;7.398;2024-02-16T05:39:29;100486.03;;;10.79;91.21
84147;BME280;74267;50.434;7.398;2024-02-16T05:41:57;100486.06;;;10.73;91.19
84147;BME280;74267;50.434;7.398;2024-02-16T05:44:22;100488.50;;;10.74;90.84
84147;BME280;74267;50.434;7.398;2024-02-16T05:46:48;100483.88;;;10.63;91.41
84147;BME280;74267;50.434;7.398;2024-02-16T05:49:14;100478.84;;;10.55;92.37
84147;BME280;74267;50.434;7.398;2024-02-16T05:51:41;100477.22;;;10.54;91.97
84147;BME280;74267;50.434;7.398;2024-02-16T05:54:07;100478.63;;;10.57;91.72
84147;BME280;74267;50.434;7.398;2024-02-16T05:56:37;100479.25;;;10.52;92.38
84147;BME280;74267;50.434;7.398;2024-02-16T05:59:04;100486.69;;;10.68;91.84
84147;BME280;74267;50.434;7.398;2024-02-16T06:01:30;100486.03;;;10.79;90.68
84147;BME280;74267;50.434;7.398;2024-02-16T06:03:55;100482.41;;;10.80;91.04
84147;BME280;74267;50.434;7.398;2024-02-16T06:06:21;100490.94;;;10.69;90.83
84147;BME280;74267;50.434;7.398;2024-02-16T06:08:46;100488.50;;;10.74;91.17
84147;BME280;74267;50.434;7.398;2024-02-16T06:11:11;100495.00;;;10.72;90.54
84147;BME280;74267;50.434;7.398;2024-02-16T06:13:37;100496.41;;;10.74;90.53
84147;BME280;74267;50.434;7.398;2024-02-16T06:16:05;100498.66;;;10.64;91.46
84147;BME280;74267;50.434;7.398;2024-02-16T06:18:33;100488.94;;;10.58;91.97
84147;BME280;74267;50.434;7.398;2024-02-16T06:20:59;100493.41;;;10.64;91.32
84147;BME280;74267;50.434;7.398;2024-02-16T06:23:24;100490.97;;;10.63;91.18
84147;BME280;74267;50.434;7.398;2024-02-16T06:25:50;100496.66;;;10.60;92.26
84147;BME280;74267;50.434;7.398;2024-02-16T06:28:15;100496.69;;;10.53;91.90
84147;BME280;74267;50.434;7.398;2024-02-16T06:30:41;100497.47;;;10.60;92.22
84147;BME280;74267;50.434;7.398;2024-02-16T06:33:06;100502.13;;;10.58;92.20
84147;BME280;74267;50.434;7.398;2024-02-16T06:35:31;100506.16;;;10.61;92.25
84147;BME280;74267;50.434;7.398;2024-02-16T06:37:57;100507.16;;;10.66;91.49
84147;BME280;74267;50.434;7.398;2024-02-16T06:40:22;100514.63;;;10.69;91.24
84147;BME280;74267;50.434;7.398;2024-02-16T06:42:48;100518.50;;;10.73;91.39
84147;BME280;74267;50.434;7.398;2024-02-16T06:45:13;100518.69;;;10.72;91.17
84147;BME280;74267;50.434;7.398;2024-02-16T06:47:38;100522.72;;;10.74;91.53
84147;BME280;74267;50.434;7.398;2024-02-16T06:50:04;100529.03;;;10.73;90.94
84147;BME280;74267;50.434;7.398;2024-02-16T06:52:29;100524.56;;;10.67;91.58
84147;BME280;74267;50.434;7.398;2024-02-16T06:54:58;100526.19;;;10.68;91.82
84147;BME280;74267;50.434;7.398;2024-02-16T06:57:24;100524.56;;;10.67;91.90
84147;BME280;74267;50.434;7.398;2024-02-16T06:59:50;100524.56;;;10.67;91.80
84147;BME280;74267;50.434;7.398;2024-02-16T07:02:15;100535.09;;;10.67;91.49
84147;BME280;74267;50.434;7.398;2024-02-16T07:04:43;100535.53;;;10.64;91.89
84147;BME280;74267;50.434;7.398;2024-02-16T07:07:08;100539.75;;;10.72;91.90
84147;BME280;74267;50.434;7.398;2024-02-16T07:09:33;100539.34;;;10.68;91.84
84147;BME280;74267;50.434;7.398;2024-02-16T07:11:59;100535.91;;;10.74;91.96
84147;BME280;74267;50.434;7.398;2024-02-16T07:14:24;100543.19;;;10.72;91.26
84147;BME280;74267;50.434;7.398;2024-02-16T07:16:49;100536.13;;;10.66;91.92
84147;BME280;74267;50.434;7.398;2024-02-16T07:19:15;100538.97;;;10.65;91.78
84147;BME280;74267;50.434;7.398;2024-02-16T07:21:40;100549.69;;;10.76;91.37
84147;BME280;74267;50.434;7.398;2024-02-16T07:24:06;100555.34;;;10.73;91.40
84147;BME280;74267;50.434;7.398;2024-02-16T07:26:31;100551.09;;;10.72;91.89
84147;BME280;74267;50.434;7.398;2024-02-16T07:28:58;100563.25;;;10.73;91.58
84147;BME280;74267;50.434;7.398;2024-02-16T07:31:23;100559.78;;;10.79;91.04
84147;BME280;74267;50.434;7.398;2024-02-16T07:33:49;100560.22;;;10.76;92.12
84147;BME280;74267;50.434;7.398;2024-02-16T07:36:14;100571.16;;;10.73;92.26
84147;BME280;74267;50.434;7.398;2024-02-16T07:38:40;100579.59;;;10.88;91.43
84147;BME280;74267;50.434;7.398;2024-02-16T07:41:05;100577.59;;;10.90;92.08
84147;BME280;74267;50.434;7.398;2024-02-16T07:43:31;100577.59;;;10.84;91.49
84147;BME280;74267;50.434;7.398;2024-02-16T07:45:56;100579.22;;;10.78;91.75
84147;BME280;74267;50.434;7.398;2024-02-16T07:48:22;100575.16;;;10.82;91.76
84147;BME280;74267;50.434;7.398;2024-02-16T07:50:48;100581.22;;;10.89;90.91
84147;BME280;74267;50.434;7.398;2024-02-16T07:53:15;100592.13;;;10.99;91.23
84147;BME280;74267;50.434;7.398;2024-02-16T07:55:41;100572.91;;;10.92;90.92
84147;BME280;74267;50.434;7.398;2024-02-16T07:58:07;100580.34;;;11.08;90.64
84147;BME280;74267;50.434;7.398;2024-02-16T08:00:32;100579.78;;;11.06;90.88
84147;BME280;74267;50.434;7.398;2024-02-16T08:02:58;100575.91;;;11.02;90.70
84147;BME280;74267;50.434;7.398;2024-02-16T08:05:24;100591.69;;;11.15;90.38
84147;BME280;74267;50.434;7.398;2024-02-16T08:07:51;100593.31;;;11.10;90.53
84147;BME280;74267;50.434;7.398;2024-02-16T08:10:19;100597.78;;;11.09;90.49
84147;BME280;74267;50.434;7.398;2024-02-16T08:12:46;100592.50;;;11.16;90.68
84147;BME280;74267;50.434;7.398;2024-02-16T08:15:12;100594.94;;;11.17;90.35
84147;BME280;74267;50.434;7.398;2024-02-16T08:17:39;100597.00;;;11.09;90.91
84147;BME280;74267;50.434;7.398;2024-02-16T08:20:05;100605.47;;;11.17;90.45
84147;BME280;74267;50.434;7.398;2024-02-16T08:22:31;100604.28;;;11.13;91.05
84147;BME280;74267;50.434;7.398;2024-02-16T08:24:57;100607.50;;;11.15;90.18
84147;BME280;74267;50.434;7.398;2024-02-16T08:27:23;100598.59;;;11.10;89.96
84147;BME280;74267;50.434;7.398;2024-02-16T08:29:49;100607.47;;;11.22;90.04
84147;BME280;74267;50.434;7.398;2024-02-16T08:32:17;100609.91;;;11.23;89.54
84147;BME280;74267;50.434;7.398;2024-02-16T08:34:43;100611.09;;;11.27;89.04
84147;BME280;74267;50.434;7.398;2024-02-16T08:37:09;100609.88;;;11.30;88.58
84147;BME280;74267;50.434;7.398;2024-02-16T08:39:37;100612.09;;;11.33;88.77
84147;BME280;74267;50.434;7.398;2024-02-16T08:42:03;100614.53;;;11.34;88.81
84147;BME280;74267;50.434;7.398;2024-02-16T08:44:28;100609.41;;;11.39;88.25
84147;BME280;74267;50.434;7.398;2024-02-16T08:46:53;100611.22;;;11.45;87.97
84147;BME280;74267;50.434;7.398;2024-02-16T08:49:19;100614.22;;;11.55;87.94
84147;BME280;74267;50.434;7.398;2024-02-16T08:51:45;100613.22;;;11.56;87.21
84147;BME280;74267;50.434;7.398;2024-02-16T08:54:10;100621.13;;;11.56;86.31
84147;BME280;74267;50.434;7.398;2024-02-16T08:56:35;100621.94;;;11.63;86.22
84147;BME280;74267;50.434;7.398;2024-02-16T08:59:02;100621.09;;;11.69;85.33
84147;BME280;74267;50.434;7.398;2024-02-16T09:01:34;100630.78;;;11.75;85.94
84147;BME280;74267;50.434;7.398;2024-02-16T09:04:00;100633.00;;;11.78;86.18
84147;BME280;74267;50.434;7.398;2024-02-16T09:06:26;100636.81;;;11.82;86.47
84147;BME280;74267;50.434;7.398;2024-02-16T09:08:52;100644.94;;;11.81;86.89
84147;BME280;74267;50.434;7.398;2024-02-16T09:11:17;100650.56;;;11.91;88.39
84147;BME280;74267;50.434;7.398;2024-02-16T09:13:43;100655.44;;;11.94;87.86
84147;BME280;74267;50.434;7.398;2024-02-16T09:16:08;100655.22;;;11.95;87.77
84147;BME280;74267;50.434;7.398;2024-02-16T09:18:34;100655.78;;;12.04;88.39
84147;BME280;74267;50.434;7.398;2024-02-16T09:20:59;100663.47;;;12.05;87.05
84147;BME280;74267;50.434;7.398;2024-02-16T09:23:26;100667.34;;;12.09;87.81
84147;BME280;74267;50.434;7.398;2024-02-16T09:25:51;100670.75;;;12.16;88.37
84147;BME280;74267;50.434;7.398;2024-02-16T09:28:17;100673.63;;;12.08;88.18
84147;BME280;74267;50.434;7.398;2024-02-16T09:30:44;100679.41;;;12.23;88.37
84147;BME280;74267;50.434;7.398;2024-02-16T09:33:10;100675.94;;;12.29;88.23
84147;BME280;74267;50.434;7.398;2024-02-16T09:35:35;100671.94;;;12.20;86.41
84147;BME280;74267;50.434;7.398;2024-02-16T09:38:00;100679.56;;;12.28;87.00
84147;BME280;74267;50.434;7.398;2024-02-16T09:40:26;100680.34;;;12.35;85.10
84147;BME280;74267;50.434;7.398;2024-02-16T09:42:51;100679.47;;;12.42;86.79
84147;BME280;74267;50.434;7.398;2024-02-16T09:45:17;100680.50;;;12.41;87.15
84147;BME280;74267;50.434;7.398;2024-02-16T09:47:44;100670.53;;;12.43;85.45
84147;BME280;74267;50.434;7.398;2024-02-16T09:50:10;100679.28;;;12.43;85.58
84147;BME280;74267;50.434;7.398;2024-02-16T09:52:36;100685.94;;;12.46;82.51
84147;BME280;74267;50.434;7.398;2024-02-16T09:55:03;100695.22;;;12.55;83.40
84147;BME280;74267;50.434;7.398;2024-02-16T09:57:28;100687.50;;;12.60;82.67
84147;BME280;74267;50.434;7.398;2024-02-16T09:59:53;100691.13;;;12.59;82.79
84147;BME280;74267;50.434;7.398;2024-02-16T10:02:19;100685.59;;;12.67;83.35
84147;BME280;74267;50.434;7.398;2024-02-16T10:04:44;100680.75;;;12.64;82.03
84147;BME280;74267;50.434;7.398;2024-02-16T10:07:09;100682.13;;;12.66;82.29
84147;BME280;74267;50.434;7.398;2024-02-16T10:09:35;100694.69;;;12.71;82.68
84147;BME280;74267;50.434;7.398;2024-02-16T10:12:00;100705.31;;;12.89;84.89
84147;BME280;74267;50.434;7.398;2024-02-16T10:14:25;100710.75;;;12.94;83.30
84147;BME280;74267;50.434;7.398;2024-02-16T10:17:05;100719.47;;;12.94;86.00
84147;BME280;74267;50.434;7.398;2024-02-16T10:19:32;100714.56;;;12.80;84.33
84147;BME280;74267;50.434;7.398;2024-02-16T10:22:10;100718.09;;;12.92;86.61
84147;BME280;74267;50.434;7.398;2024-02-16T10:24:35;100722.19;;;12.88;86.96
84147;BME280;74267;50.434;7.398;2024-02-16T10:27:04;100716.16;;;12.81;86.97
84147;BME280;74267;50.434;7.398;2024-02-16T10:29:30;100722.06;;;12.83;87.81
84147;BME280;74267;50.434;7.398;2024-02-16T10:31:56;100712.91;;;12.79;86.88
84147;BME280;74267;50.434;7.398;2024-02-16T10:34:24;100718.25;;;12.72;85.32
84147;BME280;74267;50.434;7.398;2024-02-16T10:36:50;100723.47;;;12.79;85.50
84147;BME280;74267;50.434;7.398;2024-02-16T10:39:16;100718.38;;;12.84;83.81
84147;BME280;74267;50.434;7.398;2024-02-16T10:41:44;100721.81;;;12.84;82.51
84147;BME280;74267;50.434;7.398;2024-02-16T10:44:09;100726.97;;;12.97;81.86
84147;BME280;74267;50.434;7.398;2024-02-16T10:46:35;100718.38;;;13.08;78.88
84147;BME280;74267;50.434;7.398;2024-02-16T10:49:01;100734.59;;;13.12;79.32
84147;BME280;74267;50.434;7.398;2024-02-16T10:51:46;100729.63;;;13.22;78.30
84147;BME280;74267;50.434;7.398;2024-02-16T10:54:18;100736.69;;;13.28;78.45
84147;BME280;74267;50.434;7.398;2024-02-16T10:56:45;100743.81;;;13.27;81.84
84147;BME280;74267;50.434;7.398;2024-02-16T10:59:10;100745.81;;;13.32;78.53
84147;BME280;74267;50.434;7.398;2024-02-16T11:01:40;100749.09;;;13.27;80.08
84147;BME280;74267;50.434;7.398;2024-02-16T11:04:08;100749.91;;;13.28;80.07
84147;BME280;74267;50.434;7.398;2024-02-16T11:06:54;100733.63;;;13.31;78.59
84147;BME280;74267;50.434;7.398;2024-02-16T11:09:28;100740.69;;;13.37;79.58
84147;BME280;74267;50.434;7.398;2024-02-16T11:11:58;100743.69;;;13.40;78.89
84147;BME280;74267;50.434;7.398;2024-02-16T11:14:23;100735.97;;;13.39;77.54
84147;BME280;74267;50.434;7.398;2024-02-16T11:16:53;100743.84;;;13.45;79.07
84147;BME280;74267;50.434;7.398;2024-02-16T11:19:18;100752.56;;;13.46;78.27
84147;BME280;74267;50.434;7.398;2024-02-16T11:22:03;100747.28;;;13.46;80.67
84147;BME280;74267;50.434;7.398;2024-02-16T11:24:33;100745.19;;;13.54;82.30
84147;BME280;74267;50.434;7.398;2024-02-16T11:27:01;100743.19;;;13.50;83.05
84147;BME280;74267;50.434;7.398;2024-02-16T11:29:31;100744.06;;;13.44;81.36
84147;BME280;74267;50.434;7.398;2024-02-16T11:31:56;100737.97;;;13.43;78.64
84147;BME280;74267;50.434;7.398;2024-02-16T11:34:23;100737.47;;;13.53;79.43
84147;BME280;74267;50.434;7.398;2024-02-16T11:36:52;100740.34;;;13.51;79.08
84147;BME280;74267;50.434;7.398;2024-02-16T11:39:19;100741.13;;;13.52;78.51
84147;BME280;74267;50.434;7.398;2024-02-16T11:41:44;100738.19;;;13.60;78.47
84147;BME280;74267;50.434;7.398;2024-02-16T11:44:10;100740.03;;;13.59;79.93
84147;BME280;74267;50.434;7.398;2024-02-16T11:46:35;100738.97;;;13.60;79.57
84147;BME280;74267;50.434;7.398;2024-02-16T11:49:07;100741.72;;;13.72;78.64
84147;BME280;74267;50.434;7.398;2024-02-16T11:51:33;100732.38;;;13.69;77.78
84147;BME280;74267;50.434;7.398;2024-02-16T11:53:59;100727.91;;;13.70;79.13
84147;BME280;74267;50.434;7.398;2024-02-16T11:56:25;100732.00;;;13.66;80.65
84147;BME280;74267;50.434;7.398;2024-02-16T11:58:51;100732.00;;;13.66;80.88
84147;BME280;74267;50.434;7.398;2024-02-16T12:01:17;100721.97;;;13.86;77.75
84147;BME280;74267;50.434;7.398;2024-02-16T12:03:42;100728.75;;;13.82;78.91
84147;BME280;74267;50.434;7.398;2024-02-16T12:06:08;100719.88;;;13.94;77.62
84147;BME280;74267;50.434;7.398;2024-02-16T12:08:34;100720.66;;;13.95;80.13
84147;BME280;74267;50.434;7.398;2024-02-16T12:11:00;100717.34;;;13.99;78.38
84147;BME280;74267;50.434;7.398;2024-02-16T12:13:27;100714.47;;;14.01;78.51
84147;BME280;74267;50.434;7.398;2024-02-16T12:15:52;100718.16;;;14.00;78.30
84147;BME280;74267;50.434;7.398;2024-02-16T12:18:27;100713.81;;;14.05;78.38
84147;BME280;74267;50.434;7.398;2024-02-16T12:21:01;100711.94;;;14.06;78.11
84147;BME280;74267;50.434;7.398;2024-02-16T12:23:27;100712.53;;;14.08;78.30
84147;BME280;74267;50.434;7.398;2024-02-16T12:25:53;100713.59;;;14.07;77.97
84147;BME280;74267;50.434;7.398;2024-02-16T12:28:23;100718.78;;;14.13;78.61
84147;BME280;74267;50.434;7.398;2024-02-16T12:30:49;100719.06;;;14.23;77.92
84147;BME280;74267;50.434;7.398;2024-02-16T12:33:14;100724.06;;;14.13;79.03
84147;BME280;74267;50.434;7.398;2024-02-16T12:35:40;100724.50;;;14.10;78.75
84147;BME280;74267;50.434;7.398;2024-02-16T12:38:05;100731.06;;;14.08;78.51
84147;BME280;74267;50.434;7.398;2024-02-16T12:40:30;100739.88;;;14.20;77.63
84147;BME280;74267;50.434;7.398;2024-02-16T12:42:56;100743.88;;;14.11;78.91
84147;BME280;74267;50.434;7.398;2024-02-16T12:45:21;100751.81;;;14.11;78.60